createdAt,value
2022-08-19T00:02:04.410Z,57.32
2022-08-19T00:04:39.540Z,57.30
2022-08-19T00:07:08.327Z,57.35
2022-08-19T00:09:37.086Z,57.24
2022-08-19T00:12:07.459Z,57.30
2022-08-19T00:14:45.485Z,57.27
2022-08-19T00:17:13.922Z,57.29
2022-08-19T00:19:42.198Z,57.36
2022-08-19T00:22:13.898Z,57.40
2022-08-19T00:24:50.689Z,57.25
2022-08-19T00:27:26.382Z,57.40
2022-08-19T00:29:57.053Z,57.27
2022-08-19T00:32:26.298Z,57.45
2022-08-19T00:34:57.777Z,57.62
2022-08-19T00:37:33.255Z,57.55
2022-08-19T00:40:12.671Z,57.48
2022-08-19T00:42:41.503Z,57.67
2022-08-19T00:45:15.031Z,57.71
2022-08-19T00:47:43.359Z,57.52
2022-08-19T00:50:17.129Z,57.78
2022-08-19T00:52:51.230Z,57.88
2022-08-19T00:55:23.437Z,57.83
2022-08-19T00:57:58.003Z,57.84
2022-08-19T01:00:28.729Z,57.89
2022-08-19T01:03:00.389Z,57.80
2022-08-19T01:05:30.631Z,57.89
2022-08-19T01:08:00.857Z,58.20
2022-08-19T01:10:36.139Z,58.66
2022-08-19T01:13:11.652Z,58.95
2022-08-19T01:15:52.559Z,58.76
2022-08-19T01:23:19.154Z,58.70
2022-08-19T01:25:52.761Z,58.79
2022-08-19T01:28:39.956Z,59.12
2022-08-19T01:31:32.805Z,60.31
2022-08-19T01:34:05.572Z,61.29
2022-08-19T01:36:43.086Z,65.62
2022-08-19T01:39:27.668Z,65.67
2022-08-19T01:42:14.420Z,62.43
2022-08-19T01:44:46.852Z,58.27
2022-08-19T01:47:32.124Z,58.21
2022-08-19T01:50:21.621Z,59.86
2022-08-19T01:53:08.612Z,61.53
2022-08-19T01:56:50.233Z,64.40
2022-08-19T01:59:22.398Z,64.14
2022-08-19T02:02:04.899Z,61.43
2022-08-19T02:04:57.293Z,59.00
2022-08-19T02:12:10.231Z,59.48
2022-08-19T02:15:25.361Z,59.95
2022-08-19T02:19:33.998Z,60.64
2022-08-19T02:22:22.290Z,60.88
2022-08-19T02:26:07.046Z,64.98
2022-08-19T02:28:55.303Z,63.61
2022-08-19T02:35:15.551Z,57.36
2022-08-19T02:36:26.893Z,60.44
2022-08-19T02:38:47.052Z,56.96
2022-08-19T02:41:53.017Z,57.58
2022-08-19T02:44:31.119Z,59.19
2022-08-19T02:47:00.532Z,59.85
2022-08-19T02:49:29.077Z,60.47
2022-08-19T02:52:03.957Z,61.08
2022-08-19T02:54:33.971Z,61.24
2022-08-19T02:57:02.382Z,64.37
2022-08-19T02:59:34.825Z,64.19
2022-08-19T03:02:03.223Z,58.82
2022-08-19T03:04:36.075Z,57.65
2022-08-19T03:07:10.903Z,58.11
2022-08-19T03:09:41.154Z,58.85
2022-08-19T03:12:12.215Z,59.69
2022-08-19T03:14:43.977Z,60.62
2022-08-19T03:17:21.362Z,60.91
2022-08-19T03:20:06.283Z,61.31
2022-08-19T03:25:58.233Z,63.17
2022-08-19T03:28:57.812Z,57.98
2022-08-19T03:31:45.589Z,57.07
2022-08-19T03:34:30.542Z,57.72
2022-08-19T03:37:13.413Z,58.40
2022-08-19T03:39:48.863Z,59.70
2022-08-19T03:42:38.826Z,60.31
2022-08-19T03:45:11.651Z,60.85
2022-08-19T03:47:41.945Z,64.35
2022-08-19T03:50:10.641Z,64.03
2022-08-19T03:52:40.640Z,60.86
2022-08-19T03:55:22.878Z,57.71
2022-08-19T03:57:59.265Z,57.00
2022-08-19T04:00:30.352Z,57.92
2022-08-19T04:03:05.315Z,58.72
2022-08-19T04:05:38.552Z,59.62
2022-08-19T04:08:14.306Z,60.42
2022-08-19T04:10:44.665Z,61.12
2022-08-19T04:13:20.679Z,61.51
2022-08-19T04:15:49.193Z,64.46
2022-08-19T04:18:19.315Z,64.24
2022-08-19T04:20:53.361Z,61.35
2022-08-19T04:23:33.221Z,57.75
2022-08-19T04:26:02.339Z,57.23
2022-08-19T04:28:33.917Z,57.75
2022-08-19T04:31:02.299Z,58.55
2022-08-19T04:33:31.526Z,59.31
2022-08-19T04:35:59.825Z,59.85
2022-08-19T04:38:28.134Z,60.47
2022-08-19T04:41:15.139Z,60.84
2022-08-19T04:43:49.942Z,60.87
2022-08-19T04:46:38.172Z,61.55
2022-08-19T04:49:13.219Z,65.45
2022-08-19T04:51:46.506Z,63.19
2022-08-19T04:54:23.925Z,59.05
2022-08-19T04:57:10.768Z,57.51
2022-08-19T04:59:40.175Z,58.06
2022-08-19T05:02:09.930Z,58.82
2022-08-19T05:04:40.344Z,59.40
2022-08-19T05:07:10.999Z,59.98
2022-08-19T05:09:58.111Z,60.39
2022-08-19T05:12:29.143Z,60.57
2022-08-19T05:14:59.045Z,61.19
2022-08-19T05:17:29.677Z,61.78
2022-08-19T05:20:18.440Z,64.00
2022-08-19T05:22:48.490Z,63.08
2022-08-19T05:25:20.627Z,60.41
2022-08-19T05:27:50.362Z,57.69
2022-08-19T05:30:30.222Z,56.92
2022-08-19T05:33:10.625Z,57.28
2022-08-19T05:35:40.248Z,58.50
2022-08-19T05:38:09.329Z,58.93
2022-08-19T05:40:38.178Z,59.41
2022-08-19T05:43:09.178Z,59.83
2022-08-19T05:45:41.433Z,60.53
2022-08-19T05:48:14.930Z,60.94
2022-08-19T05:50:47.450Z,61.74
2022-08-19T05:53:17.472Z,61.60
2022-08-19T05:55:46.014Z,63.64
2022-08-19T05:58:14.371Z,63.65
2022-08-19T06:00:46.920Z,60.42
2022-08-19T06:03:15.019Z,57.30
2022-08-19T06:05:49.708Z,56.24
2022-08-19T06:08:34.234Z,57.15
2022-08-19T06:11:33.977Z,57.78
2022-08-19T06:14:09.641Z,58.41
2022-08-19T06:16:46.961Z,59.45
2022-08-19T06:19:18.238Z,59.91
2022-08-19T06:21:48.824Z,60.21
2022-08-19T06:24:22.321Z,60.51
2022-08-19T06:26:58.012Z,60.72
2022-08-19T06:29:34.827Z,60.90
2022-08-19T06:32:04.519Z,60.76
2022-08-19T06:34:36.519Z,60.86
2022-08-19T06:37:06.798Z,60.47
2022-08-19T06:39:42.075Z,60.68
2022-08-19T06:42:12.854Z,60.32
2022-08-19T06:44:48.841Z,60.20
2022-08-19T06:47:23.572Z,60.04
2022-08-19T06:50:05.376Z,60.01
2022-08-19T06:52:36.772Z,59.38
2022-08-19T06:55:07.108Z,59.21
2022-08-19T06:57:38.238Z,58.83
2022-08-19T07:00:12.302Z,58.22
2022-08-19T07:02:44.719Z,57.00
2022-08-19T07:05:18.087Z,56.06
2022-08-19T07:07:48.412Z,56.00
2022-08-19T07:10:20.202Z,55.74
2022-08-19T07:12:51.377Z,55.88
2022-08-19T07:15:22.465Z,55.29
2022-08-19T07:17:52.609Z,54.55
2022-08-19T07:20:20.949Z,54.21
2022-08-19T07:22:49.201Z,54.27
2022-08-19T07:25:20.470Z,53.93
2022-08-19T07:27:54.954Z,54.04
2022-08-19T07:30:29.375Z,54.21
2022-08-19T07:33:00.738Z,53.94
2022-08-19T07:35:33.241Z,54.12
2022-08-19T07:38:03.624Z,53.43
2022-08-19T07:40:33.640Z,52.93
2022-08-19T07:43:01.818Z,52.84
2022-08-19T07:45:30.843Z,52.65
2022-08-19T07:47:59.574Z,52.75
2022-08-19T07:50:28.745Z,52.11
2022-08-19T07:52:58.063Z,52.09
2022-08-19T07:55:42.086Z,51.48
2022-08-19T07:58:16.389Z,51.12
2022-08-19T08:00:45.923Z,50.88
2022-08-19T08:03:17.453Z,50.63
2022-08-19T08:06:04.780Z,50.59
2022-08-19T08:08:52.793Z,50.48
2022-08-19T08:11:24.090Z,50.91
2022-08-19T08:14:00.963Z,51.07
2022-08-19T08:16:39.563Z,50.49
2022-08-19T08:19:20.714Z,49.43
2022-08-19T08:21:57.161Z,49.36
2022-08-19T08:24:31.849Z,48.03
2022-08-19T08:27:01.702Z,47.83
2022-08-19T08:29:44.303Z,47.72
2022-08-19T08:32:16.480Z,47.47
2022-08-19T08:34:47.450Z,46.55
2022-08-19T08:37:21.915Z,46.87
2022-08-19T08:39:50.960Z,46.46
2022-08-19T08:42:29.286Z,46.20
2022-08-19T08:45:17.015Z,46.43
2022-08-19T08:48:32.326Z,47.30
2022-08-19T08:51:03.330Z,47.60
2022-08-19T08:53:41.415Z,46.73
2022-08-19T08:56:17.122Z,46.58
2022-08-19T08:59:14.656Z,46.22
2022-08-19T09:01:42.875Z,45.80
2022-08-19T09:04:19.294Z,45.84
2022-08-19T09:07:18.418Z,45.52
2022-08-19T09:10:44.050Z,45.29
2022-08-19T09:13:47.562Z,45.31
2022-08-19T09:16:27.927Z,44.72
2022-08-19T09:19:02.748Z,44.84
2022-08-19T09:21:33.480Z,44.90
2022-08-19T09:24:07.862Z,44.21
2022-08-19T09:26:47.651Z,44.24
2022-08-19T09:29:22.517Z,44.12
2022-08-19T09:31:51.188Z,43.80
2022-08-19T09:34:22.129Z,43.75
2022-08-19T09:36:54.799Z,42.91
2022-08-19T09:39:23.210Z,43.24
2022-08-19T09:41:54.035Z,43.15
2022-08-19T09:44:22.184Z,42.55
2022-08-19T09:46:50.516Z,42.18
2022-08-19T09:49:22.901Z,42.43
2022-08-19T09:51:57.355Z,42.60
2022-08-19T09:54:29.421Z,42.58
2022-08-19T09:57:01.314Z,41.64
2022-08-19T09:59:34.937Z,41.06
2022-08-19T10:02:10.824Z,41.22
2022-08-19T10:04:58.330Z,41.09
2022-08-19T10:07:36.195Z,41.16
2022-08-19T10:10:07.274Z,40.80
2022-08-19T10:12:36.650Z,40.87
2022-08-19T10:15:07.237Z,40.46
2022-08-19T10:17:36.063Z,39.93
2022-08-19T10:20:05.813Z,40.36
2022-08-19T10:22:36.741Z,39.79
2022-08-19T10:25:06.358Z,39.85
2022-08-19T10:27:34.436Z,39.43
2022-08-19T10:30:04.594Z,39.31
2022-08-19T10:32:39.577Z,39.26
2022-08-19T10:35:21.918Z,39.41
2022-08-19T10:37:57.615Z,39.22
2022-08-19T10:40:31.796Z,38.04
2022-08-19T10:43:00.545Z,38.35
2022-08-19T10:45:29.846Z,38.97
2022-08-19T10:47:57.949Z,38.42
2022-08-19T10:51:01.369Z,38.26
2022-08-19T10:53:31.516Z,38.21
2022-08-19T10:56:18.353Z,38.24
2022-08-19T10:58:49.834Z,38.30
2022-08-19T11:01:19.340Z,38.26
2022-08-19T11:03:47.884Z,38.18
2022-08-19T11:06:16.007Z,37.84
2022-08-19T11:08:46.032Z,37.82
2022-08-19T11:11:14.312Z,37.69
2022-08-19T11:13:46.983Z,36.87
2022-08-19T11:16:20.439Z,36.33
2022-08-19T11:18:59.489Z,36.27
2022-08-19T11:21:37.359Z,36.05
2022-08-19T11:24:13.937Z,36.18
2022-08-19T11:26:45.073Z,36.09
2022-08-19T11:29:14.355Z,35.90
2022-08-19T11:31:45.500Z,35.79
2022-08-19T11:34:22.099Z,35.62
2022-08-19T11:36:54.108Z,35.12
2022-08-19T11:39:23.387Z,35.53
2022-08-19T11:41:52.852Z,34.99
2022-08-19T11:44:21.005Z,34.92
2022-08-19T11:46:49.762Z,34.81
2022-08-19T11:49:20.352Z,35.12
2022-08-19T11:51:53.800Z,34.49
2022-08-19T11:54:23.107Z,34.61
2022-08-19T11:56:51.184Z,34.56
2022-08-19T11:59:19.227Z,34.78
2022-08-19T12:01:48.175Z,35.26
2022-08-19T12:04:17.309Z,35.37
2022-08-19T12:06:47.462Z,35.30
2022-08-19T12:09:16.563Z,35.43
2022-08-19T12:11:44.893Z,35.61
2022-08-19T12:14:15.073Z,36.17
2022-08-19T12:16:51.408Z,36.62
2022-08-19T12:19:22.331Z,37.11
2022-08-19T12:21:52.220Z,37.52
2022-08-19T12:24:24.294Z,37.92
2022-08-19T12:26:56.505Z,38.20
2022-08-19T12:29:33.955Z,38.35
2022-08-19T12:32:03.754Z,38.62
2022-08-19T12:34:38.253Z,38.35
2022-08-19T12:37:09.716Z,38.07
2022-08-19T12:39:41.044Z,37.75
2022-08-19T12:42:11.300Z,37.57
2022-08-19T12:44:43.576Z,37.30
2022-08-19T12:47:16.104Z,36.81
2022-08-19T12:49:53.365Z,37.08
2022-08-19T12:52:25.896Z,37.23
2022-08-19T12:54:56.381Z,36.88
2022-08-19T12:57:32.897Z,36.47
2022-08-19T13:00:05.786Z,36.18
2022-08-19T13:02:38.496Z,36.09
2022-08-19T13:05:10.154Z,35.79
2022-08-19T13:07:41.896Z,35.89
2022-08-19T13:10:13.016Z,35.51
2022-08-19T13:12:42.292Z,35.44
2022-08-19T13:15:11.556Z,35.25
2022-08-19T13:17:40.980Z,35.41
2022-08-19T13:20:11.371Z,35.28
2022-08-19T13:22:40.083Z,35.05
2022-08-19T13:25:11.120Z,34.51
2022-08-19T13:27:40.602Z,35.04
2022-08-19T13:30:29.451Z,35.12
2022-08-19T13:33:17.208Z,34.95
2022-08-19T13:35:58.305Z,34.96
2022-08-19T13:38:26.970Z,35.65
2022-08-19T13:40:56.279Z,36.38
2022-08-19T13:43:33.921Z,37.23
2022-08-19T13:46:10.726Z,37.65
2022-08-19T13:48:39.976Z,37.95
2022-08-19T13:51:13.703Z,38.54
2022-08-19T13:53:47.871Z,39.53
2022-08-19T13:56:24.161Z,39.89
2022-08-19T13:58:59.390Z,40.39
2022-08-19T14:01:28.434Z,41.05
2022-08-19T14:03:56.533Z,41.30
2022-08-19T14:06:24.670Z,41.79
2022-08-19T14:08:53.751Z,42.37
2022-08-19T14:11:24.075Z,42.68
2022-08-19T14:13:52.428Z,43.24
2022-08-19T14:16:23.182Z,43.61
2022-08-19T14:18:51.238Z,43.96
2022-08-19T14:21:26.409Z,44.13
2022-08-19T14:23:54.927Z,44.06
2022-08-19T14:26:26.032Z,44.38
2022-08-19T14:28:58.327Z,44.56
2022-08-19T14:31:31.159Z,45.08
2022-08-19T14:34:02.642Z,45.80
2022-08-19T14:36:33.758Z,45.72
2022-08-19T14:39:05.580Z,45.88
2022-08-19T14:41:34.792Z,46.67
2022-08-19T14:44:03.352Z,46.99
2022-08-19T14:46:31.718Z,46.84
2022-08-19T14:49:00.360Z,47.38
2022-08-19T14:51:29.168Z,47.55
2022-08-19T14:53:57.641Z,47.60
2022-08-19T14:56:29.426Z,47.61
2022-08-19T14:59:01.885Z,47.98
2022-08-19T15:01:31.484Z,47.83
2022-08-19T15:03:59.512Z,47.80
2022-08-19T15:06:30.394Z,48.04
2022-08-19T15:09:03.892Z,48.60
2022-08-19T15:11:33.744Z,48.30
2022-08-19T15:14:02.617Z,48.32
2022-08-19T15:16:30.605Z,48.51
2022-08-19T15:19:00.734Z,48.68
2022-08-19T15:21:29.810Z,49.00
2022-08-19T15:23:59.225Z,48.85
2022-08-19T15:26:32.982Z,49.34
2022-08-19T15:29:03.153Z,49.13
2022-08-19T15:31:37.953Z,49.33
2022-08-19T15:34:06.956Z,49.20
2022-08-19T15:36:37.614Z,49.39
2022-08-19T15:39:31.703Z,49.27
2022-08-19T15:42:00.830Z,49.42
2022-08-19T15:44:30.292Z,49.56
2022-08-19T15:46:58.525Z,49.56
2022-08-19T15:49:26.523Z,49.91
2022-08-19T15:51:57.749Z,49.62
2022-08-19T15:54:25.885Z,49.61
2022-08-19T15:57:12.719Z,49.63
2022-08-19T16:00:02.597Z,49.72
2022-08-19T16:02:53.686Z,49.79
2022-08-19T16:05:44.221Z,49.36
2022-08-19T16:08:12.584Z,48.04
2022-08-19T16:10:43.380Z,45.91
2022-08-19T16:13:11.809Z,43.76
2022-08-19T16:15:43.854Z,41.97
2022-08-19T16:18:12.397Z,40.73
2022-08-19T16:20:41.088Z,40.45
2022-08-19T16:23:09.138Z,40.12
2022-08-19T16:25:39.435Z,40.26
2022-08-19T16:28:09.542Z,40.59
2022-08-19T16:30:42.930Z,39.88
2022-08-19T16:33:22.706Z,38.50
2022-08-19T16:35:56.106Z,36.71
2022-08-19T16:38:29.075Z,35.05
2022-08-19T16:41:00.551Z,34.17
2022-08-19T16:43:30.958Z,33.62
2022-08-19T16:45:59.770Z,34.14
2022-08-19T16:48:30.344Z,34.58
2022-08-19T16:50:59.903Z,35.37
2022-08-19T16:53:32.353Z,36.31
2022-08-19T16:56:10.067Z,37.51
2022-08-19T16:58:38.192Z,38.46
2022-08-19T17:01:13.565Z,38.83
2022-08-19T17:03:41.873Z,39.18
2022-08-19T17:06:20.474Z,40.17
2022-08-19T17:08:54.076Z,40.81
2022-08-19T17:11:24.480Z,41.37
2022-08-19T17:13:54.153Z,41.97
2022-08-19T17:16:25.620Z,42.93
2022-08-19T17:18:55.401Z,44.01
2022-08-19T17:21:32.201Z,44.43
2022-08-19T17:24:01.223Z,44.85
2022-08-19T17:26:31.250Z,45.38
2022-08-19T17:28:59.727Z,46.02
2022-08-19T17:31:30.698Z,46.52
2022-08-19T17:33:59.919Z,46.95
2022-08-19T17:36:31.907Z,47.15
2022-08-19T17:39:01.201Z,47.57
2022-08-19T17:41:30.418Z,48.19
2022-08-19T17:43:58.547Z,48.53
2022-08-19T17:46:26.829Z,48.39
2022-08-19T17:48:57.636Z,48.75
2022-08-19T17:51:33.461Z,48.92
2022-08-19T17:54:02.351Z,49.50
2022-08-19T17:56:30.829Z,49.84
2022-08-19T17:59:00.760Z,50.24
2022-08-19T18:01:43.941Z,50.71
2022-08-19T18:04:20.241Z,51.08
2022-08-19T18:06:53.225Z,51.31
2022-08-19T18:09:41.192Z,51.74
2022-08-19T18:12:17.065Z,51.91
2022-08-19T18:14:47.933Z,52.33
2022-08-19T18:17:19.584Z,52.49
2022-08-19T18:19:48.217Z,52.89
2022-08-19T18:22:29.488Z,53.13
2022-08-19T18:24:58.949Z,53.12
2022-08-19T18:27:28.521Z,53.56
2022-08-19T18:29:59.807Z,53.77
2022-08-19T18:32:34.330Z,53.78
2022-08-19T18:35:10.155Z,54.12
2022-08-19T18:37:41.204Z,54.20
2022-08-19T18:40:31.154Z,54.50
2022-08-19T18:43:12.810Z,54.69
2022-08-19T18:46:01.466Z,54.77
2022-08-19T18:48:50.017Z,54.98
2022-08-19T18:51:19.192Z,55.09
2022-08-19T18:53:51.202Z,55.40
2022-08-19T18:56:32.434Z,55.52
2022-08-19T18:59:01.708Z,55.63
2022-08-19T19:01:38.883Z,55.78
2022-08-19T19:04:13.459Z,55.78
2022-08-19T19:06:42.745Z,56.06
2022-08-19T19:09:14.419Z,56.06
2022-08-19T19:11:47.383Z,56.19
2022-08-19T19:14:45.647Z,56.36
2022-08-19T19:17:14.251Z,56.21
2022-08-19T19:19:42.999Z,56.41
2022-08-19T19:22:14.455Z,56.44
2022-08-19T19:24:54.145Z,56.59
2022-08-19T19:27:22.938Z,56.76
2022-08-19T19:30:01.653Z,56.68
2022-08-19T19:32:39.203Z,56.96
2022-08-19T19:35:10.699Z,56.75
2022-08-19T19:37:39.922Z,57.54
2022-08-19T19:40:08.539Z,58.20
2022-08-19T19:42:36.681Z,58.70
2022-08-19T19:45:06.965Z,59.03
2022-08-19T19:47:37.504Z,59.29
2022-08-19T19:50:16.011Z,59.17
2022-08-19T19:52:48.749Z,59.13
2022-08-19T19:55:23.426Z,59.15
2022-08-19T19:57:54.366Z,59.14
2022-08-19T20:00:22.896Z,59.33
2022-08-19T20:02:53.061Z,59.74
2022-08-19T20:05:23.460Z,59.70
2022-08-19T20:08:13.839Z,60.05
2022-08-19T20:10:45.933Z,60.19
2022-08-19T20:13:15.713Z,60.27
2022-08-19T20:15:43.924Z,60.58
2022-08-19T20:18:14.553Z,60.67
2022-08-19T20:20:46.827Z,60.83
2022-08-19T20:23:15.112Z,61.14
2022-08-19T20:25:43.580Z,61.23
2022-08-19T20:28:14.599Z,61.27
2022-08-19T20:30:48.053Z,60.82
2022-08-19T20:33:19.578Z,60.88
2022-08-19T20:35:49.071Z,61.19
2022-08-19T20:38:17.263Z,61.64
2022-08-19T20:40:45.500Z,61.57
2022-08-19T20:43:15.415Z,61.44
2022-08-19T20:45:47.055Z,61.18
2022-08-19T20:48:15.142Z,61.18
2022-08-19T20:50:43.151Z,61.09
2022-08-19T20:53:19.256Z,61.58
2022-08-19T20:55:52.700Z,61.70
2022-08-19T20:58:22.619Z,61.70
2022-08-19T21:00:53.172Z,61.61
2022-08-19T21:03:26.224Z,61.63
2022-08-19T21:05:55.932Z,61.71
2022-08-19T21:08:24.926Z,61.58
2022-08-19T21:10:57.501Z,61.57
2022-08-19T21:13:26.168Z,61.95
2022-08-19T21:15:57.744Z,62.10
2022-08-19T21:18:27.030Z,65.70
2022-08-19T21:20:56.057Z,65.96
2022-08-19T21:23:28.900Z,62.16
2022-08-19T21:26:00.575Z,58.68
2022-08-19T21:28:35.003Z,56.84
2022-08-19T21:31:10.457Z,57.18
2022-08-19T21:33:40.033Z,57.63
2022-08-19T21:36:11.288Z,58.21
2022-08-19T21:38:41.392Z,58.60
2022-08-19T21:41:09.607Z,59.33
2022-08-19T21:43:41.106Z,60.09
2022-08-19T21:46:09.835Z,60.54
2022-08-19T21:48:38.462Z,60.66
2022-08-19T21:51:06.860Z,60.55
2022-08-19T21:53:37.803Z,60.95
2022-08-19T21:56:06.885Z,60.89
2022-08-19T21:58:37.962Z,61.28
2022-08-19T22:01:08.295Z,61.68
2022-08-19T22:03:38.987Z,64.83
2022-08-19T22:06:07.377Z,64.53
2022-08-19T22:08:36.168Z,60.52
2022-08-19T22:11:04.432Z,57.15
2022-08-19T22:13:39.926Z,56.46
2022-08-19T22:16:10.211Z,57.49
2022-08-19T22:18:41.551Z,58.44
2022-08-19T22:21:12.183Z,59.18
2022-08-19T22:23:42.221Z,59.73
2022-08-19T22:26:11.587Z,59.95
2022-08-19T22:28:40.384Z,60.57
2022-08-19T22:31:09.780Z,60.78
2022-08-19T22:33:39.211Z,61.27
2022-08-19T22:36:07.772Z,61.63
2022-08-19T22:38:38.371Z,64.77
2022-08-19T22:41:08.041Z,64.13
2022-08-19T22:43:37.603Z,60.51
2022-08-19T22:46:17.062Z,57.10
2022-08-19T22:48:47.170Z,56.39
2022-08-19T22:51:34.823Z,57.24
2022-08-19T22:54:04.094Z,58.22
2022-08-19T22:56:32.116Z,59.09
2022-08-19T22:59:00.226Z,59.80
2022-08-19T23:01:30.313Z,60.32
2022-08-19T23:03:59.914Z,60.76
2022-08-19T23:06:31.236Z,61.21
2022-08-19T23:09:05.362Z,61.85
2022-08-19T23:11:38.142Z,65.24
2022-08-19T23:14:12.794Z,64.05
2022-08-19T23:16:50.507Z,60.40
2022-08-19T23:19:20.126Z,57.98
2022-08-19T23:21:49.038Z,57.28
2022-08-19T23:24:17.292Z,58.31
2022-08-19T23:27:05.468Z,59.39
2022-08-19T23:29:52.192Z,60.36
2022-08-19T23:32:25.725Z,60.92
2022-08-19T23:34:55.958Z,61.63
2022-08-19T23:37:25.673Z,65.25
2022-08-19T23:39:54.306Z,63.75
2022-08-19T23:42:26.173Z,60.71
2022-08-19T23:45:02.431Z,57.34
2022-08-19T23:47:32.449Z,56.97
2022-08-19T23:50:05.969Z,58.11
2022-08-19T23:52:42.188Z,59.32
2022-08-19T23:55:10.692Z,60.20
2022-08-19T23:57:38.707Z,61.25
